Time;durP1;ratioP1;P1;durP2;ratioP2;P2;SDS_P1;SDS_P2;PMS_P1;PMS_P2;Temp;Humidity;BMP_temperature;BMP_pressure;BME280_temperature;BME280_humidity;BME280_pressure;Samples;Min_cycle;Max_cycle;Signal;HPM_P1;HPM_P2
2022/12/29 02:34:49;;;;;;;2.05;0.70;;;;;;;;;;4998067;28;20663;-72
2022/12/29 02:37:19;;;;;;;3.05;0.70;;;;;;;;;;4928638;28;20057;-72
2022/12/29 02:39:51;;;;;;;1.00;0.80;;;;;;;;;;4971299;28;20143;-72
2022/12/29 02:42:23;;;;;;;3.25;0.80;;;;;;;;;;4963945;28;20062;-72
2022/12/29 02:44:55;;;;;;;2.30;0.88;;;;;;;;;;4939215;28;20058;-71
2022/12/29 02:47:24;;;;;;;0.85;0.70;;;;;;;;;;4939014;28;20067;-72
2022/12/29 02:49:58;;;;;;;1.63;1.00;;;;;;;;;;4964905;28;20143;-72
2022/12/29 03:00:12;;;;;;;1.42;0.50;;;;;;;;;;5124766;23;20070;-72
2022/12/29 03:02:39;;;;;;;;;;;;;;;;;;4946916;28;20086;-73
2022/12/29 03:18:15;;;;;;;3.67;0.60;;;;;;;;;;6171544;22;1442584;-70
2022/12/29 03:20:45;;;;;;;3.97;0.82;;;;;;;;;;6134737;23;20021;-70
2022/12/29 03:23:14;;;;;;;3.53;0.77;;;;;;;;;;6144587;23;20021;-72
2022/12/29 03:25:43;;;;;;;2.30;0.60;;;;;;;;;;6098747;23;20036;-71
2022/12/29 03:28:12;;;;;;;1.63;0.60;;;;;;;;;;6113037;23;20031;-70
2022/12/29 03:30:39;;;;;;;2.78;0.63;;;;;;;;;;6144756;23;20021;-70
2022/12/29 03:33:07;;;;;;;1.42;0.63;;;;;;;;;;6154748;23;20029;-70
2022/12/29 03:35:37;;;;;;;1.83;0.57;;;;;;;;;;6149553;23;20024;-70
2022/12/29 03:38:10;;;;;;;2.97;0.80;;;;;;;;;;6131353;23;20027;-70
2022/12/29 03:40:38;;;;;;;1.85;0.77;;;;;;;;;;6113154;23;20033;-70
2022/12/29 03:43:05;;;;;;;1.67;0.70;;;;;;;;;;6131994;23;20029;-70
2022/12/29 03:45:32;;;;;;;2.40;0.70;;;;;;;;;;6139030;23;20188;-70
2022/12/29 03:47:59;;;;;;;1.25;0.60;;;;;;;;;;6145312;23;20033;-71
2022/12/29 03:50:26;;;;;;;4.43;0.80;;;;;;;;;;6169253;23;20029;-71
2022/12/29 03:52:54;;;;;;;2.83;0.68;;;;;;;;;;6137248;23;20028;-71
2022/12/29 03:55:21;;;;;;;1.42;0.63;;;;;;;;;;6086381;23;20033;-71
2022/12/29 03:57:48;;;;;;;1.92;0.50;;;;;;;;;;6120293;23;20028;-71
2022/12/29 04:00:15;;;;;;;1.52;0.80;;;;;;;;;;6135308;23;20021;-71
2022/12/29 04:02:45;;;;;;;2.45;0.88;;;;;;;;;;6135856;23;20127;-70
2022/12/29 04:05:12;;;;;;;2.05;0.73;;;;;;;;;;6087535;23;20029;-71
2022/12/29 04:07:39;;;;;;;3.28;0.80;;;;;;;;;;6127574;23;20025;-71
2022/12/29 04:10:11;;;;;;;5.57;0.70;;;;;;;;;;6123845;23;20028;-70
2022/12/29 04:12:37;;;;;;;1.52;0.60;;;;;;;;;;6152352;23;20033;-70
2022/12/29 04:15:10;;;;;;;2.67;0.68;;;;;;;;;;6146297;23;20025;-70
2022/12/29 04:17:36;;;;;;;4.65;0.57;;;;;;;;;;6126812;23;20210;-71
2022/12/29 04:22:50;;;;;;;3.70;0.68;;;;;;;;;;6093930;23;20040;-71
2022/12/29 04:25:18;;;;;;;3.22;0.70;;;;;;;;;;6136486;23;20037;-70
2022/12/29 04:27:48;;;;;;;2.33;0.50;;;;;;;;;;6125623;23;20042;-70
2022/12/29 04:30:15;;;;;;;2.85;0.80;;;;;;;;;;6130286;23;20028;-71
2022/12/29 04:32:44;;;;;;;2.75;0.60;;;;;;;;;;6140318;23;20035;-71
2022/12/29 04:35:11;;;;;;;;;;;;;;;;;;6110114;23;20029;-71
2022/12/29 04:37:41;;;;;;;3.42;0.90;;;;;;;;;;6091126;23;20030;-70
2022/12/29 04:40:11;;;;;;;1.90;0.65;;;;;;;;;;6101654;23;20032;-71
2022/12/29 04:42:39;;;;;;;4.05;0.70;;;;;;;;;;6123355;23;20031;-71
2022/12/29 04:45:07;;;;;;;2.70;0.63;;;;;;;;;;6114813;23;20048;-71
2022/12/29 04:47:33;;;;;;;2.80;0.70;;;;;;;;;;6149999;23;21329;-70
2022/12/29 04:50:00;;;;;;;3.33;0.60;;;;;;;;;;6161393;23;20029;-71
2022/12/29 04:52:28;;;;;;;1.13;0.73;;;;;;;;;;6129400;23;20077;-71
2022/12/29 04:54:55;;;;;;;3.72;0.80;;;;;;;;;;6148779;23;20288;-71
2022/12/29 04:57:22;;;;;;;3.78;0.88;;;;;;;;;;6117958;23;20032;-70
2022/12/29 04:59:50;;;;;;;3.08;0.77;;;;;;;;;;6123424;23;20107;-70
2022/12/29 05:02:17;;;;;;;1.38;0.57;;;;;;;;;;6107840;23;20024;-71
2022/12/29 05:04:44;;;;;;;2.22;0.70;;;;;;;;;;6119993;23;20100;-71
2022/12/29 05:07:10;;;;;;;4.15;0.77;;;;;;;;;;6123371;23;20141;-71
2022/12/29 05:09:37;;;;;;;2.88;0.70;;;;;;;;;;6138252;23;21302;-71
2022/12/29 05:12:07;;;;;;;3.08;0.60;;;;;;;;;;6154576;23;20040;-71
2022/12/29 05:14:37;;;;;;;2.65;0.68;;;;;;;;;;6128530;23;20040;-70
2022/12/29 05:17:05;;;;;;;1.63;0.40;;;;;;;;;;6124131;23;20026;-71
2022/12/29 05:19:32;;;;;;;4.43;0.65;;;;;;;;;;6104333;23;20235;-70
2022/12/29 05:21:59;;;;;;;1.30;0.50;;;;;;;;;;6112322;23;20128;-71
2022/12/29 05:24:25;;;;;;;2.05;0.60;;;;;;;;;;6116575;23;20025;-70
2022/12/29 05:26:52;;;;;;;1.98;0.73;;;;;;;;;;6120986;23;20039;-71
2022/12/29 05:29:28;;;;;;;4.78;0.85;;;;;;;;;;6059606;23;20041;-71
2022/12/29 05:31:58;;;;;;;2.30;0.80;;;;;;;;;;6084974;23;20024;-70
2022/12/29 05:34:26;;;;;;;2.80;0.70;;;;;;;;;;6124056;23;20033;-71
2022/12/29 05:36:53;;;;;;;2.45;0.80;;;;;;;;;;6110582;23;20088;-71
2022/12/29 05:39:20;;;;;;;5.05;0.90;;;;;;;;;;6093924;23;20235;-71
2022/12/29 05:41:47;;;;;;;4.93;0.80;;;;;;;;;;6099355;23;20030;-70
2022/12/29 05:44:13;;;;;;;5.80;0.88;;;;;;;;;;6112699;23;20056;-70
2022/12/29 05:46:40;;;;;;;4.00;0.70;;;;;;;;;;6154818;23;20013;-71
2022/12/29 05:49:07;;;;;;;6.82;1.08;;;;;;;;;;6132915;23;20025;-71
2022/12/29 05:51:39;;;;;;;2.03;0.65;;;;;;;;;;6148230;23;20026;-71
2022/12/29 05:54:08;;;;;;;3.00;0.70;;;;;;;;;;6108703;23;20021;-71
2022/12/29 05:56:36;;;;;;;4.90;0.90;;;;;;;;;;6104942;23;20020;-70
2022/12/29 05:59:10;;;;;;;3.90;1.10;;;;;;;;;;6142992;23;20064;-70
2022/12/29 06:01:40;;;;;;;3.40;0.85;;;;;;;;;;6084513;23;20126;-70
2022/12/29 06:04:07;;;;;;;5.63;1.10;;;;;;;;;;6121489;23;20026;-71
2022/12/29 06:06:44;;;;;;;4.40;0.85;;;;;;;;;;6089074;23;20017;-71
2022/12/29 06:09:11;;;;;;;5.05;0.90;;;;;;;;;;6101729;23;20087;-71
2022/12/29 06:11:42;;;;;;;2.15;0.80;;;;;;;;;;6096616;23;22351;-71
2022/12/29 06:14:15;;;;;;;4.53;1.20;;;;;;;;;;6161873;23;20029;-70
2022/12/29 06:16:53;;;;;;;3.35;1.00;;;;;;;;;;6106734;23;20017;-70
2022/12/29 06:19:20;;;;;;;4.18;1.00;;;;;;;;;;6178836;23;20028;-71
2022/12/29 06:21:52;;;;;;;2.88;0.70;;;;;;;;;;6152353;23;20029;-71
2022/12/29 06:24:21;;;;;;;3.42;0.90;;;;;;;;;;6163917;23;20104;-71
2022/12/29 06:26:48;;;;;;;4.40;1.10;;;;;;;;;;6151801;23;20021;-70
2022/12/29 06:29:17;;;;;;;2.88;0.77;;;;;;;;;;6136922;23;20032;-72
2022/12/29 06:31:48;;;;;;;4.03;0.77;;;;;;;;;;6131496;23;20024;-71
2022/12/29 06:34:27;;;;;;;6.43;0.75;;;;;;;;;;6112680;23;20021;-70
2022/12/29 06:36:57;;;;;;;3.97;0.90;;;;;;;;;;6108886;23;20021;-70
2022/12/29 06:39:35;;;;;;;6.80;1.23;;;;;;;;;;6145419;22;20032;-70
2022/12/29 06:42:15;;;;;;;4.20;1.00;;;;;;;;;;6153016;23;20027;-71
2022/12/29 06:44:50;;;;;;;5.15;1.13;;;;;;;;;;6070839;23;20044;-70
2022/12/29 06:47:22;;;;;;;2.42;0.80;;;;;;;;;;6124510;23;20460;-71
2022/12/29 06:49:57;;;;;;;4.45;1.02;;;;;;;;;;6151971;23;20022;-71
2022/12/29 06:58:21;;;;;;;4.10;1.08;;;;;;;;;;6130282;23;20103;-71
2022/12/29 07:01:09;;;;;;;8.55;1.30;;;;;;;;;;6154334;23;20028;-71
2022/12/29 07:13:55;;;;;;;2.93;0.70;;;;;;;;;;6046333;23;20025;-71
2022/12/29 07:16:58;;;;;;;3.38;1.00;;;;;;;;;;6000756;23;20030;-71
2022/12/29 07:20:11;;;;;;;3.28;0.90;;;;;;;;;;6142201;23;20021;-72
2022/12/29 07:26:41;;;;;;;4.25;1.02;;;;;;;;;;6066818;23;20090;-71
2022/12/29 07:29:48;;;;;;;3.65;0.80;;;;;;;;;;6054529;23;20026;-73
2022/12/29 07:36:54;;;;;;;2.47;0.93;;;;;;;;;;6032852;23;20125;-73
2022/12/29 07:39:37;;;;;;;3.92;0.70;;;;;;;;;;6046438;23;20029;-71
2022/12/29 07:45:41;;;;;;;5.68;0.82;;;;;;;;;;6072138;23;20073;-71
2022/12/29 07:48:13;;;;;;;1.95;0.77;;;;;;;;;;5988175;23;20037;-71
2022/12/29 07:51:33;;;;;;;3.28;0.90;;;;;;;;;;6091389;23;20029;-72
2022/12/29 08:05:50;;;;;;;5.68;1.10;;;;;;;;;;6056158;23;20024;-72
2022/12/29 08:54:27;;;;;;;4.53;0.93;;;;;;;;;;6054981;22;1551328;-82
2022/12/29 11:41:27;;;;;;;12.60;1.70;;;;;;;;;;6291506;22;20031;-73
2022/12/29 11:44:39;;;;;;;5.60;1.23;;;;;;;;;;6107086;23;20021;-72
2022/12/29 11:47:44;;;;;;;5.97;1.45;;;;;;;;;;5977632;23;20021;-72
2022/12/29 12:01:35;;;;;;;9.18;1.83;;;;;;;;;;5019441;27;20468;-71
2022/12/29 12:04:27;;;;;;;;;;;;;;;;;;;;;
